ドーハ国際空港の過去48時間の天気

ドーハ国際空港 (Doha International Airport)

現在時刻: 9/28 11:49 +03 (9/28 08:49 UTC) 以下の時間は現地時間です。

過去48時間のMETAR気象情報
時間 風向 風速(m/s) 視程 気温(℃) 湿度(%) 気圧(hPa) 天気現象
28 11:30 4 10km以上 40 26 1006
28 11:00 南南西 3 10km以上 39 29 1006
28 10:30 南南西 3 10km以上 38 33 1007
28 10:00 3 10km以上 37 35 1007
28 09:30 2 10km以上 37 35 1007
28 09:00 不定 1 10km以上 36 37 1007
28 08:30 2 10km以上 35 42 1007
28 08:00 2 10km以上 34 47 1007
28 07:30 南東 2 10km以上 33 53 1007
28 07:00 2 10km以上 32 59 1007
28 06:30 不定 2 10km以上 31 59 1006
28 06:00 不定 1 10km以上 31 59 1006
28 05:30 西南西 2 10km以上 31 62 1005
28 05:00 西南西 2 10km以上 32 56 1005
28 04:30 西南西 2 10km以上 32 59 1005
28 04:00 南西 2 10km以上 32 63 1005
28 03:30 不定 1 10km以上 32 59 1005
28 03:00 西 2 10km以上 32 59 1004
28 02:30 不定 1 10km以上 32 56 1004
28 02:00 不定 1 10km以上 31 70 1004
28 01:30 静穏 0 10km以上 31 75 1004
28 01:00 不定 1 10km以上 32 71 1004
28 00:30 2 10km以上 32 71 1005
28 00:00 不定 1 10km以上 32 75 1005
27 23:30 不定 1 10km以上 32 75 1005
27 23:00 不定 1 10km以上 32 71 1005
27 22:30 南東 2 10km以上 32 71 1005
27 22:00 南南東 2 10km以上 32 75 1005
27 21:30 南東 2 10km以上 32 75 1006
27 21:00 南東 1 10km以上 33 71 1006
27 20:30 2 10km以上 33 71 1006
27 20:00 1 10km以上 33 71 1006
27 19:30 不定 1 10km以上 33 71 1006
27 19:00 北北東 2 10km以上 34 63 1006
27 18:30 北北東 3 10km以上 34 60 1006
27 18:00 北北東 3 10km以上 34 63 1005
27 17:30 北東 3 10km以上 35 53 1005
27 17:00 東北東 3 10km以上 35 53 1005
27 16:30 北北東 4 10km以上 35 53 1005
27 16:00 北北東 5 10km以上 36 50 1005
27 15:30 4 10km以上 37 45 1004
27 15:00 東北東 5 10km以上 37 45 1004
27 14:30 4 10km以上 39 38 1004
27 14:00 3 10km以上 42 9 1004
27 13:30 3 10km以上 42 14 1004
27 13:00 東南東 3 10km以上 41 17 1004
27 12:30 東南東 4 10km以上 41 25 1005
27 12:00 南東 5 10km以上 40 28 1005
27 11:30 南東 5 10km以上 39 40 1005
27 11:00 南東 4 10km以上 39 45 1006
27 10:30 南東 3 10km以上 39 43 1006
27 10:00 南南東 2 10km以上 39 36 1006
27 09:30 南東 3 10km以上 37 42 1006
27 09:00 南南東 2 10km以上 36 50 1006
27 08:30 2 10km以上 35 56 1006
27 08:00 不定 1 10km以上 35 53 1006
27 07:30 静穏 0 10km以上 34 63 1006
27 07:00 不定 1 10km以上 32 71 1006
27 06:30 不定 1 10km以上 32 71 1005
27 06:00 2 10km以上 30 75 1005
27 05:30 不定 1 10km以上 29 79 1005
27 05:00 北北西 2 10km以上 30 75 1005
27 04:30 北北西 2 10km以上 30 75 1005
27 04:00 北西 2 10km以上 30 75 1004
27 03:30 2 10km以上 30 75 1004
27 03:00 北北西 3 10km以上 31 70 1004
27 02:30 2 10km以上 30 75 1004
27 02:00 3 10km以上 30 70 1004
27 01:30 北北東 2 10km以上 30 70 1004
27 01:00 静穏 0 10km以上 31 70 1004
27 00:30 不定 1 10km以上 31 70 1004
27 00:00 1 10km以上 31 70 1004
26 23:30 北北東 1 10km以上 31 70 1004
26 23:00 北東 2 10km以上 32 67 1004
26 22:30 東北東 2 10km以上 32 67 1004
26 22:00 東北東 2 10km以上 32 67 1004
26 21:30 東北東 2 10km以上 33 63 1004
26 21:00 東北東 2 10km以上 33 63 1004
26 20:30 東北東 2 10km以上 33 63 1004
26 20:00 東北東 2 10km以上 33 63 1004
26 19:30 2 10km以上 34 60 1004
26 19:00 3 10km以上 34 60 1003
26 18:30 3 10km以上 34 56 1003
26 18:00 3 10km以上 34 53 1003
26 17:30 東南東 4 10km以上 35 50 1003
26 17:00 4 10km以上 35 53 1002
26 16:30 東南東 4 10km以上 35 50 1002
26 16:00 4 10km以上 36 47 1002
26 15:30 5 10km以上 36 44 1002
26 15:00 東南東 5 10km以上 37 40 1002
26 14:30 5 10km以上 37 40 1002
26 14:00 東北東 5 10km以上 38 33 1003
26 13:30 5 10km以上 37 37 1003
26 13:00 5 10km以上 38 31 1003
26 12:30 5 10km以上 38 31 1004
26 12:00 6 10km以上 37 37 1004
OTBD 280830Z 19007KT 150V220 CAVOK 40/17 Q1006 NOSIG
OTBD 280800Z 20006KT 140V250 CAVOK 39/18 Q1006 NOSIG
OTBD 280730Z 21006KT 160V260 CAVOK 38/19 Q1007 NOSIG
OTBD 280700Z 19006KT 160V220 CAVOK 37/19 Q1007 NOSIG
OTBD 280630Z 18004KT 140V210 CAVOK 37/19 Q1007 NOSIG
OTBD 280600Z VRB02KT CAVOK 36/19 Q1007 NOSIG
OTBD 280530Z 18004KT 120V250 CAVOK 35/20 Q1007 NOSIG
OTBD 280500Z 18004KT 120V230 CAVOK 34/21 Q1007 NOSIG
OTBD 280430Z 13004KT CAVOK 33/22 Q1007 NOSIG
OTBD 280400Z 17003KT 100V230 CAVOK 32/23 Q1007 NOSIG
OTBD 280330Z VRB04KT CAVOK 31/22 Q1006 NOSIG
OTBD 280300Z AUTO VRB01KT CAVOK 31/22 Q1006 NOSIG
OTBD 280230Z AUTO 24003KT 200V290 CAVOK 31/23 Q1005 NOSIG
OTBD 280200Z AUTO 24004KT 200V270 CAVOK 32/22 Q1005 NOSIG
OTBD 280130Z AUTO 25004KT 200V300 CAVOK 32/23 Q1005 NOSIG
OTBD 280100Z AUTO 23004KT 200V260 CAVOK 32/24 Q1005 NOSIG
OTBD 280030Z AUTO VRB02KT CAVOK 32/23 Q1005 NOSIG
OTBD 280000Z AUTO 26003KT 220V290 CAVOK 32/23 Q1004 NOSIG
OTBD 272330Z AUTO VRB02KT CAVOK 32/22 Q1004 NOSIG
OTBD 272300Z AUTO VRB02KT CAVOK 31/25 Q1004 NOSIG
OTBD 272230Z AUTO 00000KT CAVOK 31/26 Q1004 NOSIG
OTBD 272200Z AUTO VRB02KT CAVOK 32/26 Q1004 NOSIG
OTBD 272130Z AUTO 17003KT 140V200 CAVOK 32/26 Q1005 NOSIG
OTBD 272100Z AUTO VRB02KT CAVOK 32/27 Q1005 NOSIG
OTBD 272030Z AUTO VRB02KT CAVOK 32/27 Q1005 NOSIG
OTBD 272000Z AUTO VRB02KT CAVOK 32/26 Q1005 NOSIG
OTBD 271930Z AUTO 14003KT CAVOK 32/26 Q1005 NOSIG
OTBD 271900Z AUTO 15004KT CAVOK 32/27 Q1005 NOSIG
OTBD 271830Z AUTO 14004KT CAVOK 32/27 Q1006 NOSIG
OTBD 271800Z AUTO 13002KT CAVOK 33/27 Q1006 NOSIG
OTBD 271730Z AUTO 10003KT CAVOK 33/27 Q1006 NOSIG
OTBD 271700Z AUTO 09002KT CAVOK 33/27 Q1006 NOSIG
OTBD 271630Z AUTO VRB02KT CAVOK 33/27 Q1006 NOSIG
OTBD 271600Z AUTO 02004KT CAVOK 34/26 Q1006 NOSIG
OTBD 271530Z AUTO 02005KT CAVOK 34/25 Q1006 NOSIG
OTBD 271500Z AUTO 02006KT CAVOK 34/26 Q1005 NOSIG
OTBD 271430Z AUTO 04006KT CAVOK 35/24 Q1005 NOSIG
OTBD 271400Z 06006KT CAVOK 35/24 Q1005 NOSIG
OTBD 271330Z AUTO 03008KT CAVOK 35/24 Q1005 NOSIG
OTBD 271300Z AUTO 03009KT CAVOK 36/24 Q1005 NOSIG
OTBD 271230Z AUTO 09008KT CAVOK 37/23 Q1004 NOSIG
OTBD 271200Z AUTO 07009KT CAVOK 37/23 Q1004 NOSIG
OTBD 271130Z AUTO 09008KT CAVOK 39/22 Q1004 NOSIG
OTBD 271100Z AUTO 09006KT 060V120 CAVOK 42/03 Q1004 NOSIG
OTBD 271030Z AUTO 09005KT 050V140 CAVOK 42/09 Q1004 NOSIG
OTBD 271000Z AUTO 12006KT 080V160 CAVOK 41/11 Q1004 NOSIG
OTBD 270930Z AUTO 12008KT CAVOK 41/17 Q1005 NOSIG
OTBD 270900Z 13009KT 090V150 CAVOK 40/18 Q1005 NOSIG
OTBD 270830Z AUTO 13010KT CAVOK 39/23 Q1005 NOSIG
OTBD 270800Z AUTO 13008KT CAVOK 39/25 Q1006 NOSIG
OTBD 270730Z 14005KT 100V210 CAVOK 39/24 Q1006 NOSIG
OTBD 270700Z AUTO 15003KT 110V180 CAVOK 39/21 Q1006 NOSIG
OTBD 270630Z AUTO 14005KT 110V190 CAVOK 37/22 Q1006 NOSIG
OTBD 270600Z AUTO 16004KT 110V240 CAVOK 36/24 Q1006 NOSIG
OTBD 270530Z AUTO 17003KT 120V220 CAVOK 35/25 Q1006 NOSIG
OTBD 270500Z AUTO VRB02KT CAVOK 35/24 Q1006 NOSIG
OTBD 270430Z 00000KT CAVOK 34/26 Q1006 NOSIG
OTBD 270400Z VRB02KT CAVOK 32/26 Q1006 NOSIG
OTBD 270330Z VRB02KT CAVOK 32/26 Q1005 NOSIG
OTBD 270300Z AUTO 35003KT CAVOK 30/25 Q1005 NOSIG
OTBD 270230Z AUTO VRB01KT CAVOK 29/25 Q1005 NOSIG
OTBD 270200Z AUTO 34004KT CAVOK 30/25 Q1005 NOSIG
OTBD 270130Z AUTO 33004KT CAVOK 30/25 Q1005 NOSIG
OTBD 270100Z AUTO 32004KT CAVOK 30/25 Q1004 NOSIG
OTBD 270030Z AUTO 35004KT CAVOK 30/25 Q1004 NOSIG
OTBD 270000Z AUTO 33006KT CAVOK 31/25 Q1004 NOSIG
OTBD 262330Z AUTO 35004KT CAVOK 30/25 Q1004 NOSIG
OTBD 262300Z AUTO 36005KT CAVOK 30/24 Q1004 NOSIG
OTBD 262230Z AUTO 02003KT 360V060 CAVOK 30/24 Q1004 NOSIG
OTBD 262200Z AUTO 00000KT CAVOK 31/25 Q1004 NOSIG
OTBD 262130Z AUTO VRB01KT CAVOK 31/25 Q1004 NOSIG
OTBD 262100Z AUTO 01001KT CAVOK 31/25 Q1004 NOSIG
OTBD 262030Z AUTO 03002KT CAVOK 31/25 Q1004 NOSIG
OTBD 262000Z AUTO 05003KT CAVOK 32/25 Q1004 NOSIG
OTBD 261930Z 06004KT CAVOK 32/25 Q1004 NOSIG
OTBD 261900Z AUTO 07003KT CAVOK 32/25 Q1004 NOSIG
OTBD 261830Z AUTO 06003KT CAVOK 33/25 Q1004 NOSIG
OTBD 261800Z AUTO 06004KT CAVOK 33/25 Q1004 NOSIG
OTBD 261730Z AUTO 06004KT CAVOK 33/25 Q1004 NOSIG
OTBD 261700Z 07004KT CAVOK 33/25 Q1004 NOSIG
OTBD 261630Z AUTO 09004KT CAVOK 34/25 Q1004 NOSIG
OTBD 261600Z AUTO 10005KT CAVOK 34/25 Q1003 NOSIG
OTBD 261530Z AUTO 10006KT CAVOK 34/24 Q1003 NOSIG
OTBD 261500Z AUTO 10006KT CAVOK 34/23 Q1003 NOSIG
OTBD 261430Z AUTO 11007KT CAVOK 35/23 Q1003 NOSIG
OTBD 261400Z AUTO 10007KT CAVOK 35/24 Q1002 NOSIG
OTBD 261330Z AUTO 11008KT CAVOK 35/23 Q1002 NOSIG
OTBD 261300Z AUTO 10008KT CAVOK 36/23 Q1002 NOSIG
OTBD 261230Z AUTO 10009KT CAVOK 36/22 Q1002 NOSIG
OTBD 261200Z AUTO 11009KT CAVOK 37/21 Q1002 NOSIG
OTBD 261130Z AUTO 09010KT CAVOK 37/21 Q1002 NOSIG
OTBD 261100Z AUTO 07009KT 050V110 CAVOK 38/19 Q1003 NOSIG
OTBD 261030Z AUTO 08010KT CAVOK 37/20 Q1003 NOSIG
OTBD 261000Z AUTO 08009KT CAVOK 38/18 Q1003 NOSIG
OTBD 260930Z 08010KT CAVOK 38/18 Q1004 NOSIG
OTBD 260900Z AUTO 10012KT CAVOK 37/20 Q1004 NOSIG